Weather History for KOPM - January, 2014

Change the Weather History Date:

Monday, January 6, 2014

  Actual Average Record
Temperature  
Mean Temperature 46 °F -  
Max Temperature 50 °F - - ()
Min Temperature 42 °F - - ()
Degree Days  
Heating Degree Days 19    
Moisture  
Dew Point 34 °F    
Average Humidity 66    
Maximum Humidity 76    
Minimum Humidity 58    
Precipitation  
Precipitation 0.00 in - - ()
Sea Level Pressure  
Sea Level Pressure 30.54 in    
Wind  
Wind Speed 14 mph (North)    
Max Wind Speed 18 mph    
Max Gust Speed 30 mph    
Visibility 10 miles    
Events      
T = Trace of Precipitation, MM = Missing Value Source: NWS Daily Summary

Daily Weather History Graph

Daily Weather History Graph

Search for Another Location

Airport or City:

Trip Planner

Search our weather history database for the weather conditions in past years. The results will help you decide how hot, cold, wet, or windy it might be!

Date:

Astronomy

Jan. 06, 2014 Rise Set
Actual Time 7:17 AM CST 5:49 PM CST
Civil Twilight 6:52 AM CST 6:15 PM CST
Nautical Twilight 6:23 AM CST 6:43 PM CST
Astronomical Twilight 5:55 AM CST 7:12 PM CST
Moon 11:08 AM CST (1/6) 11:46 PM CST (1/6)
Length of Visible Light 11h 22m
Length of Day
10h 32m
Waxing Crescent, 35% of the Moon is Illuminated
Jan 6
Waxing Crescent
Jan 7
First Quarter
Jan 15
Full
Jan 23
Last Quarter
Jan 30
New

Hourly Weather History & Observations

Time (CST) Temp. Windchill Dew Point Humidity Pressure Visibility Wind Dir Wind Speed Gust Speed Precip Events Conditions
12:15 AM 50.0 °F - 35.6 °F 58% 30.31 in 10.0 mi North 16.1 mph 24.2 mph N/A   Overcast
12:35 AM - - - N/A% - - North - - N/A   Unknown
12:55 AM 50.0 °F - 35.6 °F 58% 30.33 in 10.0 mi North 18.4 mph 28.8 mph N/A   Unknown
1:15 AM 48.2 °F - 35.6 °F 62% 30.34 in 10.0 mi North 13.8 mph 28.8 mph N/A   Overcast
1:35 AM 48.2 °F - 33.8 °F 58% 30.34 in 10.0 mi North 15.0 mph 28.8 mph N/A   Mostly Cloudy
1:55 AM 48.2 °F - 33.8 °F 58% 30.35 in 10.0 mi North 15.0 mph 21.9 mph N/A   Mostly Cloudy
2:15 AM 48.2 °F - 35.6 °F 62% 30.35 in 10.0 mi NNW 16.1 mph 29.9 mph N/A   Overcast
2:35 AM 48.2 °F - 35.6 °F 62% 30.36 in 10.0 mi North 17.3 mph 25.3 mph N/A   Overcast
2:55 AM - - - N/A% - 10.0 mi North - - N/A   Overcast
3:15 AM 48.2 °F - 35.6 °F 62% 30.37 in 10.0 mi North 15.0 mph 26.5 mph N/A   Unknown
3:35 AM 48.2 °F - 33.8 °F 58% 30.37 in 10.0 mi North 16.1 mph 28.8 mph N/A   Mostly Cloudy
3:55 AM 48.2 °F - 33.8 °F 58% 30.38 in 10.0 mi NNW 16.1 mph 28.8 mph N/A   Mostly Cloudy
4:15 AM 46.4 °F 39.8 °F 33.8 °F 62% 30.40 in 10.0 mi NNW 16.1 mph 26.5 mph N/A   Mostly Cloudy
4:35 AM 46.4 °F 39.8 °F 35.6 °F 66% 30.40 in 10.0 mi NNW 16.1 mph 26.5 mph N/A   Mostly Cloudy
4:55 AM 46.4 °F - 35.6 °F 66% 30.41 in 10.0 mi North - - N/A   Mostly Cloudy
5:15 AM 46.4 °F 39.2 °F 33.8 °F 62% 30.41 in 10.0 mi North 18.4 mph 29.9 mph N/A   Mostly Cloudy
5:35 AM 46.4 °F 40.4 °F 35.6 °F 66% 30.43 in 10.0 mi North 13.8 mph 27.6 mph N/A   Mostly Cloudy
5:55 AM 46.4 °F 40.7 °F 33.8 °F 62% 30.44 in 10.0 mi North 12.7 mph 25.3 mph N/A   Mostly Cloudy
6:15 AM 46.4 °F 40.4 °F 35.6 °F 66% 30.45 in 10.0 mi North 13.8 mph 20.7 mph N/A   Overcast
6:35 AM 46.4 °F 40.7 °F 35.6 °F 66% 30.46 in 10.0 mi North 12.7 mph 21.9 mph N/A   Overcast
6:55 AM 46.4 °F 40.4 °F 35.6 °F 66% 30.46 in 10.0 mi North 13.8 mph 27.6 mph N/A   Overcast
7:15 AM 46.4 °F 40.4 °F 35.6 °F 66% 30.48 in 10.0 mi North 13.8 mph 24.2 mph N/A   Overcast
7:35 AM 46.4 °F 40.4 °F 35.6 °F 66% 30.49 in 10.0 mi North 13.8 mph 24.2 mph N/A   Overcast
7:55 AM 46.4 °F 40.1 °F 33.8 °F 62% 30.50 in 10.0 mi North 15.0 mph 28.8 mph N/A   Overcast
8:15 AM 46.4 °F 40.4 °F 35.6 °F 66% 30.52 in - North 13.8 mph 21.9 mph N/A   Mostly Cloudy
8:35 AM 44.6 °F 36.9 °F 35.6 °F 71% 30.54 in 10.0 mi North 18.4 mph 27.6 mph N/A   Overcast
8:55 AM 44.6 °F 38.1 °F 35.6 °F 71% 30.55 in 10.0 mi North 13.8 mph 27.6 mph N/A   Overcast
9:15 AM 44.6 °F 38.4 °F 35.6 °F 71% 30.56 in 10.0 mi North 12.7 mph 24.2 mph N/A   Overcast
9:35 AM 44.6 °F 37.8 °F 35.6 °F 71% 30.59 in 10.0 mi North 15.0 mph 24.2 mph N/A   Overcast
9:55 AM 44.6 °F 38.1 °F 35.6 °F 71% 30.61 in 10.0 mi North 13.8 mph 21.9 mph N/A   Overcast
10:15 AM 44.6 °F 38.1 °F 35.6 °F 71% 30.61 in 10.0 mi North 13.8 mph 21.9 mph N/A   Overcast
10:35 AM 44.6 °F 38.8 °F 33.8 °F 66% 30.62 in 10.0 mi North 11.5 mph 24.2 mph N/A   Overcast
10:55 AM 44.6 °F 38.8 °F 35.6 °F 71% 30.61 in 10.0 mi NNW 11.5 mph 25.3 mph N/A   Overcast
11:15 AM 44.6 °F 37.4 °F 35.6 °F 71% 30.61 in 10.0 mi North 16.1 mph 23.0 mph N/A   Overcast
11:35 AM 44.6 °F 38.4 °F 35.6 °F 71% 30.60 in 10.0 mi NNW 12.7 mph 26.5 mph N/A   Overcast
11:55 AM 44.6 °F 37.8 °F 35.6 °F 71% 30.59 in 10.0 mi North 15.0 mph 26.5 mph N/A   Overcast
12:15 PM 44.6 °F 38.4 °F 35.6 °F 71% 30.60 in 10.0 mi North 12.7 mph 28.8 mph N/A   Overcast
12:35 PM 44.6 °F 39.2 °F 35.6 °F 71% 30.59 in 10.0 mi North 10.4 mph 24.2 mph N/A   Overcast
12:55 PM 42.8 °F 35.1 °F 35.6 °F 76% 30.58 in 10.0 mi North 16.1 mph 27.6 mph N/A   Overcast
1:15 PM 42.8 °F 35.4 °F 33.8 °F 70% 30.57 in 10.0 mi North 15.0 mph 27.6 mph N/A   Overcast
1:35 PM 42.8 °F 35.8 °F 33.8 °F 70% 30.57 in 10.0 mi North 13.8 mph 20.7 mph N/A   Overcast
1:55 PM 42.8 °F 38.0 °F 33.8 °F 70% 30.57 in 10.0 mi North 8.1 mph 24.2 mph N/A   Overcast
2:15 PM 42.8 °F 36.6 °F 33.8 °F 70% 30.56 in 10.0 mi North 11.5 mph 19.6 mph N/A   Overcast
2:35 PM 44.6 °F 37.2 °F 33.8 °F 66% 30.56 in 10.0 mi North 17.3 mph - N/A   Overcast
2:55 PM 44.6 °F 37.8 °F 33.8 °F 66% 30.56 in 10.0 mi North 15.0 mph - N/A   Overcast
3:15 PM 44.6 °F 38.4 °F 35.6 °F 71% 30.58 in 10.0 mi North 12.7 mph 20.7 mph N/A   Overcast
3:35 PM 44.6 °F 39.2 °F 33.8 °F 66% 30.59 in 10.0 mi North 10.4 mph 19.6 mph N/A   Overcast
3:55 PM 44.6 °F 39.7 °F 33.8 °F 66% 30.59 in 10.0 mi North 9.2 mph 20.7 mph N/A   Overcast
4:15 PM 44.6 °F 39.2 °F 33.8 °F 66% 30.59 in 10.0 mi North 10.4 mph 20.7 mph N/A   Overcast
4:35 PM 44.6 °F 38.4 °F 33.8 °F 66% 30.59 in 10.0 mi North 12.7 mph 20.7 mph N/A   Overcast
4:55 PM 44.6 °F 40.2 °F 33.8 °F 66% 30.60 in 10.0 mi NNW 8.1 mph 19.6 mph N/A   Overcast
5:15 PM 44.6 °F 39.2 °F 33.8 °F 66% 30.61 in 10.0 mi North 10.4 mph 19.6 mph N/A   Overcast
5:35 PM 44.6 °F 39.2 °F 33.8 °F 66% 30.60 in 10.0 mi North 10.4 mph 17.3 mph N/A   Overcast
5:55 PM 44.6 °F 39.7 °F 33.8 °F 66% 30.60 in 10.0 mi NNW 9.2 mph 17.3 mph N/A   Overcast
6:15 PM 44.6 °F 40.2 °F 33.8 °F 66% 30.61 in 10.0 mi NNW 8.1 mph 17.3 mph N/A   Overcast
6:35 PM 44.6 °F 40.2 °F 33.8 °F 66% 30.61 in 10.0 mi North 8.1 mph 16.1 mph N/A   Overcast
6:55 PM 44.6 °F 39.2 °F 33.8 °F 66% 30.61 in 10.0 mi North 10.4 mph 19.6 mph N/A   Overcast
7:15 PM 44.6 °F 38.1 °F 33.8 °F 66% 30.61 in 10.0 mi North 13.8 mph 20.7 mph N/A   Overcast
7:35 PM 44.6 °F 39.7 °F 33.8 °F 66% 30.62 in 10.0 mi NNW 9.2 mph 18.4 mph N/A   Overcast
7:55 PM 44.6 °F 39.2 °F 32.0 °F 61% 30.62 in 10.0 mi North 10.4 mph - N/A   Overcast
8:15 PM 44.6 °F 39.2 °F 33.8 °F 66% 30.63 in 10.0 mi North 10.4 mph 17.3 mph N/A   Overcast
8:35 PM 44.6 °F 40.2 °F 32.0 °F 61% 30.64 in 10.0 mi North 8.1 mph 17.3 mph N/A   Unknown
8:55 PM 44.6 °F 40.2 °F 33.8 °F 66% 30.63 in 10.0 mi North 8.1 mph 18.4 mph N/A   Mostly Cloudy
9:15 PM 44.6 °F 40.2 °F 32.0 °F 61% 30.63 in 10.0 mi North 8.1 mph 15.0 mph N/A   Mostly Cloudy
9:35 PM 44.6 °F 39.7 °F 33.8 °F 66% 30.64 in 10.0 mi NNW 9.2 mph 16.1 mph N/A   Overcast
9:55 PM 44.6 °F 39.7 °F 33.8 °F 66% 30.64 in 10.0 mi NNW 9.2 mph 16.1 mph N/A   Overcast
10:15 PM 44.6 °F 39.7 °F 33.8 °F 66% 30.64 in 10.0 mi NNW 9.2 mph - N/A   Overcast
10:35 PM 44.6 °F 40.2 °F 33.8 °F 66% 30.62 in 10.0 mi North 8.1 mph - N/A   Overcast
10:55 PM 44.6 °F 40.2 °F 33.8 °F 66% 30.62 in 10.0 mi North 8.1 mph 16.1 mph N/A   Overcast
11:15 PM 44.6 °F 39.7 °F 33.8 °F 66% 30.63 in 10.0 mi North 9.2 mph - N/A   Unknown
11:35 PM 44.6 °F 40.2 °F 33.8 °F 66% 30.62 in 10.0 mi North 8.1 mph 15.0 mph N/A   Unknown
11:55 PM 44.6 °F 39.7 °F 33.8 °F 66% 30.62 in - NNW 9.2 mph 16.1 mph N/A   Unknown